sensor_id;sensor_type;location;lat;lon;timestamp;pressure;altitude;pressure_sealevel;temperature;humidity
54042;BME280;41156;51.508;5.406;2023-03-23T00:00:25;100135.63;;;11.33;100.00
54042;BME280;41156;51.508;5.406;2023-03-23T00:03:25;100147.81;;;11.36;100.00
54042;BME280;41156;51.508;5.406;2023-03-23T00:06:28;100143.84;;;11.38;100.00
54042;BME280;41156;51.508;5.406;2023-03-23T00:09:32;100119.72;;;11.37;100.00
54042;BME280;41156;51.508;5.406;2023-03-23T00:12:34;100116.78;;;11.38;100.00
54042;BME280;41156;51.508;5.406;2023-03-23T00:15:34;100124.91;;;11.38;100.00
54042;BME280;41156;51.508;5.406;2023-03-23T00:18:35;100151.38;;;11.36;100.00
54042;BME280;41156;51.508;5.406;2023-03-23T00:21:37;100140.91;;;11.40;100.00
54042;BME280;41156;51.508;5.406;2023-03-23T00:24:38;100128.78;;;11.42;100.00
54042;BME280;41156;51.508;5.406;2023-03-23T00:27:39;100126.66;;;11.44;100.00
54042;BME280;41156;51.508;5.406;2023-03-23T00:30:41;100132.09;;;11.44;100.00
54042;BME280;41156;51.508;5.406;2023-03-23T00:33:44;100140.44;;;11.43;100.00
54042;BME280;41156;51.508;5.406;2023-03-23T00:36:54;100140.66;;;11.41;100.00
54042;BME280;41156;51.508;5.406;2023-03-23T00:39:56;100148.19;;;11.39;100.00
54042;BME280;41156;51.508;5.406;2023-03-23T00:42:57;100141.38;;;11.37;100.00
54042;BME280;41156;51.508;5.406;2023-03-23T00:45:57;100137.38;;;11.39;100.00
54042;BME280;41156;51.508;5.406;2023-03-23T00:49:01;100136.06;;;11.42;100.00
54042;BME280;41156;51.508;5.406;2023-03-23T00:52:02;100124.19;;;11.43;100.00
54042;BME280;41156;51.508;5.406;2023-03-23T00:55:02;100125.00;;;11.43;100.00
54042;BME280;41156;51.508;5.406;2023-03-23T00:58:03;100123.38;;;11.42;100.00
54042;BME280;41156;51.508;5.406;2023-03-23T01:01:04;100125.25;;;11.42;100.00
54042;BME280;41156;51.508;5.406;2023-03-23T01:04:05;100103.28;;;11.38;100.00
54042;BME280;41156;51.508;5.406;2023-03-23T01:07:05;100099.97;;;11.36;100.00
54042;BME280;41156;51.508;5.406;2023-03-23T01:10:08;100102.44;;;11.38;100.00
54042;BME280;41156;51.508;5.406;2023-03-23T01:13:08;100101.38;;;11.39;100.00
54042;BME280;41156;51.508;5.406;2023-03-23T01:16:10;100065.97;;;11.40;100.00
54042;BME280;41156;51.508;5.406;2023-03-23T01:19:11;100076.31;;;11.43;100.00
54042;BME280;41156;51.508;5.406;2023-03-23T01:22:11;100077.97;;;11.44;100.00
54042;BME280;41156;51.508;5.406;2023-03-23T01:25:13;100074.19;;;11.45;100.00
54042;BME280;41156;51.508;5.406;2023-03-23T01:28:14;100073.72;;;11.48;100.00
54042;BME280;41156;51.508;5.406;2023-03-23T01:31:24;100060.44;;;11.47;100.00
54042;BME280;41156;51.508;5.406;2023-03-23T01:34:24;100059.47;;;11.53;100.00
54042;BME280;41156;51.508;5.406;2023-03-23T01:37:25;100070.63;;;11.57;100.00
54042;BME280;41156;51.508;5.406;2023-03-23T01:40:26;100078.75;;;11.57;100.00
54042;BME280;41156;51.508;5.406;2023-03-23T01:43:27;100071.72;;;11.56;100.00
54042;BME280;41156;51.508;5.406;2023-03-23T01:46:29;100076.63;;;11.59;100.00
54042;BME280;41156;51.508;5.406;2023-03-23T01:49:34;100078.28;;;11.60;100.00
54042;BME280;41156;51.508;5.406;2023-03-23T01:52:36;100084.50;;;11.60;100.00
54042;BME280;41156;51.508;5.406;2023-03-23T01:55:40;100072.63;;;11.61;100.00
54042;BME280;41156;51.508;5.406;2023-03-23T01:58:41;100066.75;;;11.64;100.00
54042;BME280;41156;51.508;5.406;2023-03-23T02:01:43;100057.53;;;11.65;100.00
54042;BME280;41156;51.508;5.406;2023-03-23T02:04:45;100042.13;;;11.66;100.00
54042;BME280;41156;51.508;5.406;2023-03-23T02:07:47;100040.00;;;11.68;100.00
54042;BME280;41156;51.508;5.406;2023-03-23T02:10:47;100047.88;;;11.70;100.00
54042;BME280;41156;51.508;5.406;2023-03-23T02:13:49;100034.13;;;11.71;100.00
54042;BME280;41156;51.508;5.406;2023-03-23T02:27:36;100035.41;;;11.69;100.00
54042;BME280;41156;51.508;5.406;2023-03-23T02:37:12;100016.69;;;11.67;100.00
54042;BME280;41156;51.508;5.406;2023-03-23T02:40:19;100009.66;;;11.66;100.00
54042;BME280;41156;51.508;5.406;2023-03-23T02:43:22;100008.00;;;11.65;100.00
54042;BME280;41156;51.508;5.406;2023-03-23T02:46:25;100014.00;;;11.67;100.00
54042;BME280;41156;51.508;5.406;2023-03-23T02:49:27;100013.19;;;11.66;100.00
54042;BME280;41156;51.508;5.406;2023-03-23T02:52:32;100022.97;;;11.68;100.00
54042;BME280;41156;51.508;5.406;2023-03-23T02:55:34;100027.03;;;11.70;100.00
54042;BME280;41156;51.508;5.406;2023-03-23T02:58:36;100021.16;;;11.73;100.00
54042;BME280;41156;51.508;5.406;2023-03-23T03:04:38;100027.00;;;11.82;100.00
54042;BME280;41156;51.508;5.406;2023-03-23T03:07:44;100022.75;;;11.86;100.00
54042;BME280;41156;51.508;5.406;2023-03-23T03:10:54;100033.34;;;11.88;100.00
54042;BME280;41156;51.508;5.406;2023-03-23T03:14:08;100037.09;;;11.87;100.00
54042;BME280;41156;51.508;5.406;2023-03-23T03:17:20;100031.69;;;11.87;100.00
54042;BME280;41156;51.508;5.406;2023-03-23T03:20:25;100019.19;;;11.85;100.00
54042;BME280;41156;51.508;5.406;2023-03-23T03:23:27;100028.16;;;11.86;100.00
54042;BME280;41156;51.508;5.406;2023-03-23T03:26:31;100031.69;;;11.87;100.00
54042;BME280;41156;51.508;5.406;2023-03-23T03:29:36;100027.06;;;11.87;100.00
54042;BME280;41156;51.508;5.406;2023-03-23T03:32:43;100026.75;;;11.83;100.00
54042;BME280;41156;51.508;5.406;2023-03-23T03:35:44;100025.69;;;11.84;100.00
54042;BME280;41156;51.508;5.406;2023-03-23T03:38:48;100023.22;;;11.83;100.00
54042;BME280;41156;51.508;5.406;2023-03-23T03:41:49;100029.13;;;11.80;100.00
54042;BME280;41156;51.508;5.406;2023-03-23T03:44:50;100022.06;;;11.79;100.00
54042;BME280;41156;51.508;5.406;2023-03-23T03:47:50;100031.03;;;11.79;100.00
54042;BME280;41156;51.508;5.406;2023-03-23T03:50:51;100026.19;;;11.81;100.00
54042;BME280;41156;51.508;5.406;2023-03-23T03:53:52;100021.56;;;11.82;100.00
54042;BME280;41156;51.508;5.406;2023-03-23T03:56:52;100028.66;;;11.83;100.00
54042;BME280;41156;51.508;5.406;2023-03-23T03:59:57;100037.34;;;11.85;100.00
54042;BME280;41156;51.508;5.406;2023-03-23T04:02:58;100037.00;;;11.81;100.00
54042;BME280;41156;51.508;5.406;2023-03-23T04:06:00;100040.53;;;11.82;100.00
54042;BME280;41156;51.508;5.406;2023-03-23T04:09:00;100036.75;;;11.83;100.00
54042;BME280;41156;51.508;5.406;2023-03-23T04:12:05;100042.75;;;11.85;100.00
54042;BME280;41156;51.508;5.406;2023-03-23T04:15:06;100042.41;;;11.81;100.00
54042;BME280;41156;51.508;5.406;2023-03-23T04:18:07;100046.28;;;11.85;100.00
54042;BME280;41156;51.508;5.406;2023-03-23T04:21:09;100060.41;;;11.88;100.00
54042;BME280;41156;51.508;5.406;2023-03-23T04:24:09;100058.28;;;11.90;100.00
54042;BME280;41156;51.508;5.406;2023-03-23T04:27:09;100056.84;;;11.87;100.00
54042;BME280;41156;51.508;5.406;2023-03-23T04:30:13;100058.75;;;11.87;100.00
54042;BME280;41156;51.508;5.406;2023-03-23T04:33:13;100060.56;;;11.81;100.00
54042;BME280;41156;51.508;5.406;2023-03-23T04:36:14;100064.88;;;11.82;100.00
54042;BME280;41156;51.508;5.406;2023-03-23T04:39:16;100064.66;;;11.83;100.00
54042;BME280;41156;51.508;5.406;2023-03-23T04:42:16;100072.78;;;11.83;100.00
54042;BME280;41156;51.508;5.406;2023-03-23T04:45:19;100063.25;;;11.81;100.00
54042;BME280;41156;51.508;5.406;2023-03-23T04:48:25;100069.25;;;11.83;100.00
54042;BME280;41156;51.508;5.406;2023-03-23T04:51:28;100073.00;;;11.82;100.00
54042;BME280;41156;51.508;5.406;2023-03-23T04:54:28;100068.69;;;11.81;100.00
54042;BME280;41156;51.508;5.406;2023-03-23T04:57:29;100071.72;;;11.84;100.00
54042;BME280;41156;51.508;5.406;2023-03-23T05:00:29;100065.72;;;11.82;100.00
54042;BME280;41156;51.508;5.406;2023-03-23T05:03:30;100078.41;;;11.82;100.00
54042;BME280;41156;51.508;5.406;2023-03-23T05:06:30;100077.84;;;11.80;100.00
54042;BME280;41156;51.508;5.406;2023-03-23T05:09:31;100080.22;;;11.76;100.00
54042;BME280;41156;51.508;5.406;2023-03-23T05:12:31;100071.53;;;11.74;100.00
54042;BME280;41156;51.508;5.406;2023-03-23T05:15:31;100086.13;;;11.73;100.00
54042;BME280;41156;51.508;5.406;2023-03-23T05:18:32;100075.03;;;11.75;100.00
54042;BME280;41156;51.508;5.406;2023-03-23T05:21:32;100059.84;;;11.74;100.00
54042;BME280;41156;51.508;5.406;2023-03-23T05:24:33;100068.59;;;11.76;100.00
54042;BME280;41156;51.508;5.406;2023-03-23T05:27:33;100066.94;;;11.75;100.00
54042;BME280;41156;51.508;5.406;2023-03-23T05:30:34;100085.06;;;11.74;100.00
54042;BME280;41156;51.508;5.406;2023-03-23T05:33:34;100094.22;;;11.73;100.00
54042;BME280;41156;51.508;5.406;2023-03-23T05:36:34;100092.81;;;11.71;100.00
54042;BME280;41156;51.508;5.406;2023-03-23T05:39:36;100083.53;;;11.66;100.00
54042;BME280;41156;51.508;5.406;2023-03-23T05:42:36;100087.22;;;11.60;100.00
54042;BME280;41156;51.508;5.406;2023-03-23T05:45:36;100077.94;;;11.56;100.00
54042;BME280;41156;51.508;5.406;2023-03-23T05:48:37;100076.75;;;11.52;100.00
54042;BME280;41156;51.508;5.406;2023-03-23T05:51:38;100091.84;;;11.48;100.00
54042;BME280;41156;51.508;5.406;2023-03-23T05:54:38;100097.72;;;11.45;100.00
54042;BME280;41156;51.508;5.406;2023-03-23T05:57:39;100082.53;;;11.44;100.00
54042;BME280;41156;51.508;5.406;2023-03-23T06:00:39;100081.72;;;11.43;100.00
54042;BME280;41156;51.508;5.406;2023-03-23T06:03:40;100085.25;;;11.44;100.00
54042;BME280;41156;51.508;5.406;2023-03-23T06:06:40;100080.69;;;11.44;100.00
54042;BME280;41156;51.508;5.406;2023-03-23T06:09:42;100089.13;;;11.48;100.00
54042;BME280;41156;51.508;5.406;2023-03-23T06:12:42;100089.94;;;11.48;100.00
54042;BME280;41156;51.508;5.406;2023-03-23T06:15:43;100097.59;;;11.52;100.00
54042;BME280;41156;51.508;5.406;2023-03-23T06:18:43;100116.06;;;11.55;100.00
54042;BME280;41156;51.508;5.406;2023-03-23T06:21:44;100109.31;;;11.57;100.00
54042;BME280;41156;51.508;5.406;2023-03-23T06:24:44;100119.69;;;11.60;100.00
54042;BME280;41156;51.508;5.406;2023-03-23T06:27:45;100131.09;;;11.62;100.00
54042;BME280;41156;51.508;5.406;2023-03-23T06:30:46;100137.91;;;11.65;100.00
54042;BME280;41156;51.508;5.406;2023-03-23T06:33:46;100134.72;;;11.68;100.00
54042;BME280;41156;51.508;5.406;2023-03-23T06:36:47;100135.31;;;11.70;100.00
54042;BME280;41156;51.508;5.406;2023-03-23T06:39:47;100137.78;;;11.72;100.00
54042;BME280;41156;51.508;5.406;2023-03-23T06:42:48;100150.84;;;11.75;100.00
54042;BME280;41156;51.508;5.406;2023-03-23T06:45:48;100155.78;;;11.78;100.00
54042;BME280;41156;51.508;5.406;2023-03-23T06:48:49;100150.34;;;11.78;100.00
54042;BME280;41156;51.508;5.406;2023-03-23T06:51:50;100164.69;;;11.78;100.00
54042;BME280;41156;51.508;5.406;2023-03-23T06:54:51;100151.16;;;11.78;100.00
54042;BME280;41156;51.508;5.406;2023-03-23T06:57:51;100175.53;;;11.78;100.00
54042;BME280;41156;51.508;5.406;2023-03-23T07:00:56;100177.19;;;11.79;100.00
54042;BME280;41156;51.508;5.406;2023-03-23T07:03:56;100176.59;;;11.77;100.00
54042;BME280;41156;51.508;5.406;2023-03-23T07:06:57;100177.09;;;11.74;100.00
54042;BME280;41156;51.508;5.406;2023-03-23T07:09:57;100174.13;;;11.64;100.00
54042;BME280;41156;51.508;5.406;2023-03-23T07:12:58;100179.09;;;11.55;100.00
54042;BME280;41156;51.508;5.406;2023-03-23T07:15:59;100187.47;;;11.42;100.00
54042;BME280;41156;51.508;5.406;2023-03-23T07:19:00;100189.94;;;11.32;100.00
54042;BME280;41156;51.508;5.406;2023-03-23T07:22:01;100203.47;;;11.20;100.00
54042;BME280;41156;51.508;5.406;2023-03-23T07:25:01;100212.97;;;11.10;100.00
54042;BME280;41156;51.508;5.406;2023-03-23T07:28:02;100207.22;;;11.07;100.00
54042;BME280;41156;51.508;5.406;2023-03-23T07:31:03;100226.84;;;11.02;100.00
54042;BME280;41156;51.508;5.406;2023-03-23T07:34:04;100220.50;;;10.97;100.00
54042;BME280;41156;51.508;5.406;2023-03-23T07:37:04;100219.56;;;10.91;100.00
54042;BME280;41156;51.508;5.406;2023-03-23T07:40:05;100205.84;;;10.62;100.00
54042;BME280;41156;51.508;5.406;2023-03-23T07:43:11;100201.69;;;10.48;100.00
54042;BME280;41156;51.508;5.406;2023-03-23T07:46:12;100210.56;;;10.36;100.00
54042;BME280;41156;51.508;5.406;2023-03-23T07:49:13;100209.59;;;10.31;100.00
54042;BME280;41156;51.508;5.406;2023-03-23T07:52:13;100220.41;;;10.31;100.00
54042;BME280;41156;51.508;5.406;2023-03-23T07:55:14;100217.47;;;10.32;100.00
54042;BME280;41156;51.508;5.406;2023-03-23T07:58:17;100233.22;;;10.35;100.00
54042;BME280;41156;51.508;5.406;2023-03-23T08:01:19;100240.28;;;10.36;100.00
54042;BME280;41156;51.508;5.406;2023-03-23T08:04:19;100245.31;;;10.33;100.00
54042;BME280;41156;51.508;5.406;2023-03-23T08:07:20;100244.94;;;10.29;100.00
54042;BME280;41156;51.508;5.406;2023-03-23T08:10:21;100255.13;;;10.27;100.00
54042;BME280;41156;51.508;5.406;2023-03-23T08:13:23;100264.97;;;10.22;100.00
54042;BME280;41156;51.508;5.406;2023-03-23T08:16:24;100280.94;;;10.23;100.00
54042;BME280;41156;51.508;5.406;2023-03-23T08:19:25;100263.69;;;10.24;100.00
54042;BME280;41156;51.508;5.406;2023-03-23T08:22:26;100268.38;;;10.29;100.00
54042;BME280;41156;51.508;5.406;2023-03-23T08:25:30;100265.47;;;10.30;100.00
54042;BME280;41156;51.508;5.406;2023-03-23T08:28:31;100257.38;;;10.30;100.00
54042;BME280;41156;51.508;5.406;2023-03-23T08:31:32;100265.28;;;10.32;100.00
54042;BME280;41156;51.508;5.406;2023-03-23T08:34:34;100253.19;;;10.34;100.00
54042;BME280;41156;51.508;5.406;2023-03-23T08:37:35;100261.81;;;10.43;100.00
54042;BME280;41156;51.508;5.406;2023-03-23T08:40:35;100251.72;;;10.50;100.00
54042;BME280;41156;51.508;5.406;2023-03-23T08:43:36;100257.50;;;10.54;100.00
54042;BME280;41156;51.508;5.406;2023-03-23T08:46:38;100260.34;;;10.59;100.00
54042;BME280;41156;51.508;5.406;2023-03-23T08:49:39;100262.72;;;10.67;100.00
54042;BME280;41156;51.508;5.406;2023-03-23T08:52:40;100263.91;;;10.71;100.00
54042;BME280;41156;51.508;5.406;2023-03-23T08:55:41;100266.75;;;10.77;100.00
54042;BME280;41156;51.508;5.406;2023-03-23T08:58:42;100271.69;;;10.80;100.00
54042;BME280;41156;51.508;5.406;2023-03-23T09:01:43;100280.97;;;10.84;100.00
54042;BME280;41156;51.508;5.406;2023-03-23T09:04:43;100286.03;;;10.80;100.00
54042;BME280;41156;51.508;5.406;2023-03-23T09:07:46;100267.09;;;10.80;100.00
54042;BME280;41156;51.508;5.406;2023-03-23T09:10:46;100258.44;;;10.90;100.00
54042;BME280;41156;51.508;5.406;2023-03-23T09:13:49;100259.56;;;11.13;100.00
54042;BME280;41156;51.508;5.406;2023-03-23T09:16:49;100266.03;;;11.35;100.00
54042;BME280;41156;51.508;5.406;2023-03-23T09:19:50;100264.19;;;11.47;100.00
54042;BME280;41156;51.508;5.406;2023-03-23T09:22:53;100277.69;;;11.59;100.00
54042;BME280;41156;51.508;5.406;2023-03-23T09:25:54;100273.09;;;11.60;100.00
54042;BME280;41156;51.508;5.406;2023-03-23T09:28:54;100269.69;;;11.53;100.00
54042;BME280;41156;51.508;5.406;2023-03-23T09:31:56;100265.81;;;11.48;100.00
54042;BME280;41156;51.508;5.406;2023-03-23T09:34:57;100265.22;;;11.46;100.00
54042;BME280;41156;51.508;5.406;2023-03-23T09:37:57;100266.88;;;11.47;100.00
54042;BME280;41156;51.508;5.406;2023-03-23T09:41:08;100272.19;;;11.54;100.00
54042;BME280;41156;51.508;5.406;2023-03-23T09:44:30;100278.50;;;11.72;100.00
54042;BME280;41156;51.508;5.406;2023-03-23T09:50:51;100280.50;;;12.00;100.00
54042;BME280;41156;51.508;5.406;2023-03-23T09:54:00;100283.81;;;12.02;100.00
54042;BME280;41156;51.508;5.406;2023-03-23T09:57:03;100277.44;;;12.08;100.00
54042;BME280;41156;51.508;5.406;2023-03-23T10:03:16;100282.31;;;12.35;100.00
54042;BME280;41156;51.508;5.406;2023-03-23T10:06:18;100278.75;;;12.46;100.00
54042;BME280;41156;51.508;5.406;2023-03-23T10:09:19;100276.56;;;12.60;100.00
54042;BME280;41156;51.508;5.406;2023-03-23T10:15:42;100291.50;;;12.91;100.00
54042;BME280;41156;51.508;5.406;2023-03-23T10:18:58;100294.41;;;13.02;100.00
54042;BME280;41156;51.508;5.406;2023-03-23T10:22:10;100293.69;;;13.23;100.00
54042;BME280;41156;51.508;5.406;2023-03-23T10:28:15;100311.56;;;13.70;100.00
54042;BME280;41156;51.508;5.406;2023-03-23T10:31:34;100314.66;;;13.96;100.00
54042;BME280;41156;51.508;5.406;2023-03-23T10:34:43;100319.06;;;14.02;100.00
54042;BME280;41156;51.508;5.406;2023-03-23T10:37:48;100317.50;;;14.06;100.00
54042;BME280;41156;51.508;5.406;2023-03-23T10:40:54;100301.97;;;14.23;100.00
54042;BME280;41156;51.508;5.406;2023-03-23T10:43:56;100313.22;;;14.32;100.00
54042;BME280;41156;51.508;5.406;2023-03-23T10:50:01;100300.03;;;14.19;100.00
54042;BME280;41156;51.508;5.406;2023-03-23T10:53:15;100300.28;;;14.17;100.00
54042;BME280;41156;51.508;5.406;2023-03-23T10:56:35;100314.34;;;14.14;100.00
54042;BME280;41156;51.508;5.406;2023-03-23T10:59:39;100306.69;;;14.11;100.00
54042;BME280;41156;51.508;5.406;2023-03-23T11:02:44;100300.09;;;14.24;100.00
54042;BME280;41156;51.508;5.406;2023-03-23T11:05:49;100302.22;;;14.44;100.00
54042;BME280;41156;51.508;5.406;2023-03-23T11:08:52;100297.72;;;14.55;100.00
54042;BME280;41156;51.508;5.406;2023-03-23T11:11:54;100295.38;;;14.64;100.00
54042;BME280;41156;51.508;5.406;2023-03-23T11:15:04;100304.66;;;14.63;100.00
54042;BME280;41156;51.508;5.406;2023-03-23T11:18:22;100292.91;;;14.62;100.00
54042;BME280;41156;51.508;5.406;2023-03-23T11:21:24;100289.59;;;14.82;100.00
54042;BME280;41156;51.508;5.406;2023-03-23T11:24:26;100306.00;;;14.87;100.00
54042;BME280;41156;51.508;5.406;2023-03-23T11:27:27;100309.84;;;14.91;100.00
54042;BME280;41156;51.508;5.406;2023-03-23T11:30:30;100314.50;;;14.96;100.00
54042;BME280;41156;51.508;5.406;2023-03-23T11:33:47;100314.59;;;15.06;100.00
54042;BME280;41156;51.508;5.406;2023-03-23T11:36:51;100328.22;;;15.06;100.00
54042;BME280;41156;51.508;5.406;2023-03-23T11:39:57;100324.28;;;14.97;100.00
54042;BME280;41156;51.508;5.406;2023-03-23T11:43:09;100328.56;;;14.88;100.00
54042;BME280;41156;51.508;5.406;2023-03-23T11:46:29;100329.81;;;15.02;100.00
54042;BME280;41156;51.508;5.406;2023-03-23T11:53:13;100322.94;;;15.59;100.00
54042;BME280;41156;51.508;5.406;2023-03-23T11:59:33;100314.25;;;16.00;100.00
54042;BME280;41156;51.508;5.406;2023-03-23T12:02:52;100310.59;;;16.37;100.00
54042;BME280;41156;51.508;5.406;2023-03-23T12:06:03;100302.75;;;16.45;100.00
54042;BME280;41156;51.508;5.406;2023-03-23T12:12:53;100293.81;;;16.71;100.00
54042;BME280;41156;51.508;5.406;2023-03-23T12:16:09;100281.00;;;16.71;100.00
54042;BME280;41156;51.508;5.406;2023-03-23T12:22:46;100304.47;;;16.77;100.00
54042;BME280;41156;51.508;5.406;2023-03-23T12:26:04;100308.06;;;16.88;100.00
54042;BME280;41156;51.508;5.406;2023-03-23T12:32:31;100281.00;;;16.76;100.00
54042;BME280;41156;51.508;5.406;2023-03-23T12:36:09;100277.50;;;16.91;100.00
54042;BME280;41156;51.508;5.406;2023-03-23T12:46:37;100281.34;;;17.21;100.00
54042;BME280;41156;51.508;5.406;2023-03-23T12:49:43;100276.97;;;17.05;100.00
54042;BME280;41156;51.508;5.406;2023-03-23T12:52:59;100252.94;;;17.12;100.00
54042;BME280;41156;51.508;5.406;2023-03-23T13:02:29;100257.31;;;17.28;100.00
54042;BME280;41156;51.508;5.406;2023-03-23T13:05:44;100268.53;;;17.42;100.00
54042;BME280;41156;51.508;5.406;2023-03-23T13:08:59;100267.13;;;17.55;100.00
54042;BME280;41156;51.508;5.406;2023-03-23T13:12:03;100266.56;;;17.63;100.00
54042;BME280;41156;51.508;5.406;2023-03-23T13:15:32;100269.28;;;17.63;100.00
54042;BME280;41156;51.508;5.406;2023-03-23T13:18:48;100255.59;;;17.73;100.00
54042;BME280;41156;51.508;5.406;2023-03-23T13:22:14;100256.69;;;17.93;95.96
54042;BME280;41156;51.508;5.406;2023-03-23T13:25:46;100267.09;;;17.91;90.46
54042;BME280;41156;51.508;5.406;2023-03-23T13:28:55;100268.16;;;17.85;100.00
54042;BME280;41156;51.508;5.406;2023-03-23T13:32:06;100267.69;;;17.62;100.00
54042;BME280;41156;51.508;5.406;2023-03-23T13:35:17;100290.34;;;17.27;100.00
54042;BME280;41156;51.508;5.406;2023-03-23T13:38:27;100279.06;;;16.72;100.00
54042;BME280;41156;51.508;5.406;2023-03-23T13:41:28;100304.00;;;16.17;100.00
54042;BME280;41156;51.508;5.406;2023-03-23T13:48:04;100331.75;;;14.79;100.00
54042;BME280;41156;51.508;5.406;2023-03-23T13:51:24;100323.06;;;14.38;100.00
54042;BME280;41156;51.508;5.406;2023-03-23T13:54:32;100317.81;;;14.10;100.00
54042;BME280;41156;51.508;5.406;2023-03-23T13:57:52;100313.00;;;13.95;100.00
54042;BME280;41156;51.508;5.406;2023-03-23T14:04:14;100278.34;;;13.46;100.00
54042;BME280;41156;51.508;5.406;2023-03-23T14:07:17;100288.91;;;13.81;100.00
54042;BME280;41156;51.508;5.406;2023-03-23T14:10:19;100272.31;;;14.22;100.00
54042;BME280;41156;51.508;5.406;2023-03-23T14:16:32;100272.50;;;14.87;100.00
54042;BME280;41156;51.508;5.406;2023-03-23T14:19:38;100268.56;;;14.99;100.00
54042;BME280;41156;51.508;5.406;2023-03-23T14:22:39;100267.91;;;14.87;100.00
54042;BME280;41156;51.508;5.406;2023-03-23T14:25:40;100276.75;;;14.72;100.00
54042;BME280;41156;51.508;5.406;2023-03-23T14:28:44;100251.94;;;14.69;100.00
54042;BME280;41156;51.508;5.406;2023-03-23T14:31:44;100242.53;;;14.82;100.00
54042;BME280;41156;51.508;5.406;2023-03-23T14:34:48;100221.50;;;14.99;100.00
54042;BME280;41156;51.508;5.406;2023-03-23T14:37:49;100223.19;;;15.10;100.00
54042;BME280;41156;51.508;5.406;2023-03-23T14:40:50;100204.22;;;15.15;100.00
54042;BME280;41156;51.508;5.406;2023-03-23T14:43:50;100210.69;;;15.09;100.00
54042;BME280;41156;51.508;5.406;2023-03-23T14:46:52;100211.69;;;14.98;100.00
54042;BME280;41156;51.508;5.406;2023-03-23T14:49:55;100217.81;;;14.83;100.00
54042;BME280;41156;51.508;5.406;2023-03-23T14:53:03;100206.84;;;14.73;100.00
54042;BME280;41156;51.508;5.406;2023-03-23T14:56:14;100205.13;;;14.94;100.00
54042;BME280;41156;51.508;5.406;2023-03-23T14:59:15;100209.59;;;15.10;100.00
54042;BME280;41156;51.508;5.406;2023-03-23T15:02:27;100228.19;;;15.24;100.00
54042;BME280;41156;51.508;5.406;2023-03-23T15:05:31;100236.28;;;15.13;100.00
54042;BME280;41156;51.508;5.406;2023-03-23T15:08:34;100234.59;;;15.02;100.00
54042;BME280;41156;51.508;5.406;2023-03-23T15:11:37;100232.41;;;15.04;100.00
54042;BME280;41156;51.508;5.406;2023-03-23T15:14:49;100233.69;;;14.96;100.00
54042;BME280;41156;51.508;5.406;2023-03-23T15:17:51;100223.75;;;14.80;100.00
54042;BME280;41156;51.508;5.406;2023-03-23T15:20:51;100220.28;;;14.85;100.00
54042;BME280;41156;51.508;5.406;2023-03-23T15:23:52;100210.00;;;14.92;100.00
54042;BME280;41156;51.508;5.406;2023-03-23T15:26:53;100191.53;;;14.94;100.00
54042;BME280;41156;51.508;5.406;2023-03-23T15:29:58;100193.06;;;14.85;100.00
54042;BME280;41156;51.508;5.406;2023-03-23T15:33:10;100203.53;;;14.66;100.00
54042;BME280;41156;51.508;5.406;2023-03-23T15:36:17;100198.13;;;14.49;100.00
54042;BME280;41156;51.508;5.406;2023-03-23T15:39:18;100177.91;;;14.34;100.00
54042;BME280;41156;51.508;5.406;2023-03-23T15:42:38;100175.84;;;14.19;100.00
54042;BME280;41156;51.508;5.406;2023-03-23T15:45:39;100176.25;;;14.06;100.00
54042;BME280;41156;51.508;5.406;2023-03-23T15:51:54;100175.88;;;13.97;100.00
54042;BME280;41156;51.508;5.406;2023-03-23T15:54:55;100176.50;;;14.04;100.00
54042;BME280;41156;51.508;5.406;2023-03-23T15:57:56;100158.41;;;14.15;100.00
54042;BME280;41156;51.508;5.406;2023-03-23T16:00:58;100172.47;;;14.34;100.00
54042;BME280;41156;51.508;5.406;2023-03-23T16:04:05;100168.09;;;14.33;100.00
54042;BME280;41156;51.508;5.406;2023-03-23T16:07:07;100172.47;;;14.34;100.00
54042;BME280;41156;51.508;5.406;2023-03-23T16:10:15;100178.97;;;14.33;100.00
54042;BME280;41156;51.508;5.406;2023-03-23T16:13:16;100183.28;;;14.29;100.00
54042;BME280;41156;51.508;5.406;2023-03-23T16:16:21;100184.59;;;14.27;100.00
54042;BME280;41156;51.508;5.406;2023-03-23T16:19:22;100181.88;;;14.27;100.00
54042;BME280;41156;51.508;5.406;2023-03-23T16:22:23;100185.38;;;14.22;100.00
54042;BME280;41156;51.508;5.406;2023-03-23T16:25:23;100193.47;;;14.17;100.00
54042;BME280;41156;51.508;5.406;2023-03-23T16:28:24;100198.28;;;14.10;100.00
54042;BME280;41156;51.508;5.406;2023-03-23T16:31:24;100205.81;;;14.02;100.00
54042;BME280;41156;51.508;5.406;2023-03-23T16:34:24;100203.53;;;13.94;100.00
54042;BME280;41156;51.508;5.406;2023-03-23T16:37:27;100206.50;;;13.93;100.00
54042;BME280;41156;51.508;5.406;2023-03-23T16:40:32;100204.41;;;14.00;100.00
54042;BME280;41156;51.508;5.406;2023-03-23T16:43:32;100213.06;;;13.97;100.00
54042;BME280;41156;51.508;5.406;2023-03-23T16:46:33;100202.94;;;13.92;100.00
54042;BME280;41156;51.508;5.406;2023-03-23T16:49:33;100198.22;;;13.82;100.00
54042;BME280;41156;51.508;5.406;2023-03-23T16:52:34;100186.91;;;13.68;100.00
54042;BME280;41156;51.508;5.406;2023-03-23T16:55:35;100179.19;;;13.60;100.00
54042;BME280;41156;51.508;5.406;2023-03-23T16:58:36;100177.50;;;13.54;100.00
54042;BME280;41156;51.508;5.406;2023-03-23T17:01:36;100174.13;;;13.47;100.00
54042;BME280;41156;51.508;5.406;2023-03-23T17:04:44;100177.34;;;13.44;100.00
54042;BME280;41156;51.508;5.406;2023-03-23T17:07:46;100176.78;;;13.42;100.00